sensor_id;sensor_type;location;lat;lon;timestamp;P1;durP1;ratioP1;P2;durP2;ratioP2
22236;SDS011;11287;48.122;11.536;2023-02-20T00:01:15;3.33;;;1.85;;
22236;SDS011;11287;48.122;11.536;2023-02-20T00:03:40;3.10;;;1.92;;
22236;SDS011;11287;48.122;11.536;2023-02-20T00:06:06;4.00;;;1.50;;
22236;SDS011;11287;48.122;11.536;2023-02-20T00:08:31;3.08;;;1.60;;
22236;SDS011;11287;48.122;11.536;2023-02-20T00:10:56;3.67;;;1.90;;
22236;SDS011;11287;48.122;11.536;2023-02-20T00:13:22;2.53;;;1.73;;
22236;SDS011;11287;48.122;11.536;2023-02-20T00:15:47;4.10;;;1.70;;
22236;SDS011;11287;48.122;11.536;2023-02-20T00:18:12;5.00;;;1.98;;
22236;SDS011;11287;48.122;11.536;2023-02-20T00:20:38;3.75;;;1.58;;
22236;SDS011;11287;48.122;11.536;2023-02-20T00:23:03;3.53;;;1.90;;
22236;SDS011;11287;48.122;11.536;2023-02-20T00:25:29;4.57;;;1.80;;
22236;SDS011;11287;48.122;11.536;2023-02-20T00:27:54;4.20;;;1.92;;
22236;SDS011;11287;48.122;11.536;2023-02-20T00:30:20;3.67;;;1.80;;
22236;SDS011;11287;48.122;11.536;2023-02-20T00:32:47;3.67;;;1.90;;
22236;SDS011;11287;48.122;11.536;2023-02-20T00:35:13;2.30;;;1.52;;
22236;SDS011;11287;48.122;11.536;2023-02-20T00:37:39;1.98;;;1.50;;
22236;SDS011;11287;48.122;11.536;2023-02-20T00:40:04;2.22;;;1.60;;
22236;SDS011;11287;48.122;11.536;2023-02-20T00:42:30;3.60;;;1.70;;
22236;SDS011;11287;48.122;11.536;2023-02-20T00:44:55;2.47;;;1.42;;
22236;SDS011;11287;48.122;11.536;2023-02-20T00:47:21;2.47;;;1.60;;
22236;SDS011;11287;48.122;11.536;2023-02-20T00:49:46;2.65;;;1.40;;
22236;SDS011;11287;48.122;11.536;2023-02-20T00:52:11;2.72;;;1.63;;
22236;SDS011;11287;48.122;11.536;2023-02-20T00:54:36;2.53;;;1.63;;
22236;SDS011;11287;48.122;11.536;2023-02-20T00:57:02;2.22;;;1.70;;
22236;SDS011;11287;48.122;11.536;2023-02-20T00:59:27;3.10;;;1.70;;
22236;SDS011;11287;48.122;11.536;2023-02-20T01:01:53;5.25;;;1.70;;
22236;SDS011;11287;48.122;11.536;2023-02-20T01:04:18;3.80;;;1.70;;
22236;SDS011;11287;48.122;11.536;2023-02-20T01:06:44;2.50;;;1.73;;
22236;SDS011;11287;48.122;11.536;2023-02-20T01:09:09;3.97;;;1.67;;
22236;SDS011;11287;48.122;11.536;2023-02-20T01:11:34;2.00;;;1.50;;
22236;SDS011;11287;48.122;11.536;2023-02-20T01:14:00;3.40;;;1.50;;
22236;SDS011;11287;48.122;11.536;2023-02-20T01:16:25;2.38;;;1.50;;
22236;SDS011;11287;48.122;11.536;2023-02-20T01:18:50;2.28;;;1.45;;
22236;SDS011;11287;48.122;11.536;2023-02-20T01:21:16;4.95;;;2.17;;
22236;SDS011;11287;48.122;11.536;2023-02-20T01:23:41;1.65;;;1.42;;
22236;SDS011;11287;48.122;11.536;2023-02-20T01:26:06;2.63;;;1.65;;
22236;SDS011;11287;48.122;11.536;2023-02-20T01:28:32;3.60;;;1.70;;
22236;SDS011;11287;48.122;11.536;2023-02-20T01:30:57;1.67;;;1.40;;
22236;SDS011;11287;48.122;11.536;2023-02-20T01:33:22;2.83;;;1.63;;
22236;SDS011;11287;48.122;11.536;2023-02-20T01:35:48;2.50;;;1.77;;
22236;SDS011;11287;48.122;11.536;2023-02-20T01:38:13;2.95;;;1.58;;
22236;SDS011;11287;48.122;11.536;2023-02-20T01:40:38;4.85;;;1.65;;
22236;SDS011;11287;48.122;11.536;2023-02-20T01:43:10;2.95;;;1.50;;
22236;SDS011;11287;48.122;11.536;2023-02-20T01:45:36;2.78;;;1.58;;
22236;SDS011;11287;48.122;11.536;2023-02-20T01:48:03;1.92;;;1.48;;
22236;SDS011;11287;48.122;11.536;2023-02-20T01:50:39;3.30;;;1.75;;
22236;SDS011;11287;48.122;11.536;2023-02-20T01:53:08;5.80;;;1.60;;
22236;SDS011;11287;48.122;11.536;2023-02-20T01:58:11;1.58;;;1.48;;
22236;SDS011;11287;48.122;11.536;2023-02-20T02:00:39;2.60;;;1.80;;
22236;SDS011;11287;48.122;11.536;2023-02-20T02:03:06;2.55;;;1.60;;
22236;SDS011;11287;48.122;11.536;2023-02-20T02:05:34;2.17;;;1.70;;
22236;SDS011;11287;48.122;11.536;2023-02-20T02:08:02;2.67;;;1.75;;
22236;SDS011;11287;48.122;11.536;2023-02-20T02:10:30;3.85;;;1.88;;
22236;SDS011;11287;48.122;11.536;2023-02-20T02:12:58;3.42;;;1.73;;
22236;SDS011;11287;48.122;11.536;2023-02-20T02:15:24;5.43;;;1.90;;
22236;SDS011;11287;48.122;11.536;2023-02-20T02:23:45;3.80;;;1.77;;
22236;SDS011;11287;48.122;11.536;2023-02-20T02:29:41;3.35;;;1.92;;
22236;SDS011;11287;48.122;11.536;2023-02-20T02:32:21;3.47;;;1.75;;
22236;SDS011;11287;48.122;11.536;2023-02-20T02:35:09;3.42;;;1.80;;
22236;SDS011;11287;48.122;11.536;2023-02-20T02:40:41;2.60;;;1.58;;
22236;SDS011;11287;48.122;11.536;2023-02-20T02:45:54;2.60;;;1.77;;
22236;SDS011;11287;48.122;11.536;2023-02-20T02:49:02;1.98;;;1.70;;
22236;SDS011;11287;48.122;11.536;2023-02-20T02:51:12;3.00;;;1.83;;
22236;SDS011;11287;48.122;11.536;2023-02-20T02:53:41;2.35;;;1.70;;
22236;SDS011;11287;48.122;11.536;2023-02-20T02:56:08;3.92;;;2.17;;
22236;SDS011;11287;48.122;11.536;2023-02-20T02:58:49;4.00;;;1.65;;
22236;SDS011;11287;48.122;11.536;2023-02-20T03:01:17;3.25;;;2.00;;
22236;SDS011;11287;48.122;11.536;2023-02-20T03:03:44;6.90;;;2.10;;
22236;SDS011;11287;48.122;11.536;2023-02-20T03:08:51;3.78;;;1.70;;
22236;SDS011;11287;48.122;11.536;2023-02-20T03:11:21;2.88;;;1.95;;
22236;SDS011;11287;48.122;11.536;2023-02-20T03:19:27;7.25;;;2.00;;
22236;SDS011;11287;48.122;11.536;2023-02-20T03:21:56;5.20;;;2.30;;
22236;SDS011;11287;48.122;11.536;2023-02-20T03:24:23;3.17;;;1.83;;
22236;SDS011;11287;48.122;11.536;2023-02-20T03:26:49;2.95;;;2.00;;
22236;SDS011;11287;48.122;11.536;2023-02-20T03:29:26;2.05;;;1.70;;
22236;SDS011;11287;48.122;11.536;2023-02-20T03:32:00;3.92;;;1.85;;
22236;SDS011;11287;48.122;11.536;2023-02-20T03:34:45;4.50;;;2.10;;
22236;SDS011;11287;48.122;11.536;2023-02-20T03:37:30;8.25;;;1.90;;
22236;SDS011;11287;48.122;11.536;2023-02-20T03:40:16;2.95;;;1.80;;
22236;SDS011;11287;48.122;11.536;2023-02-20T03:43:02;3.80;;;1.88;;
22236;SDS011;11287;48.122;11.536;2023-02-20T03:45:47;2.70;;;1.85;;
22236;SDS011;11287;48.122;11.536;2023-02-20T03:48:26;3.53;;;2.20;;
22236;SDS011;11287;48.122;11.536;2023-02-20T03:50:56;4.75;;;2.00;;
22236;SDS011;11287;48.122;11.536;2023-02-20T03:53:41;4.45;;;2.00;;
22236;SDS011;11287;48.122;11.536;2023-02-20T03:56:08;2.42;;;1.67;;
22236;SDS011;11287;48.122;11.536;2023-02-20T03:58:37;4.13;;;1.83;;
22236;SDS011;11287;48.122;11.536;2023-02-20T04:01:05;4.57;;;2.97;;
22236;SDS011;11287;48.122;11.536;2023-02-20T04:03:31;3.60;;;2.08;;
22236;SDS011;11287;48.122;11.536;2023-02-20T04:06:01;4.22;;;2.20;;
22236;SDS011;11287;48.122;11.536;2023-02-20T04:08:44;2.55;;;1.80;;
22236;SDS011;11287;48.122;11.536;2023-02-20T04:11:14;2.95;;;2.10;;
22236;SDS011;11287;48.122;11.536;2023-02-20T04:13:44;5.80;;;2.15;;
22236;SDS011;11287;48.122;11.536;2023-02-20T04:16:11;5.88;;;1.90;;
22236;SDS011;11287;48.122;11.536;2023-02-20T04:18:37;5.15;;;2.20;;
22236;SDS011;11287;48.122;11.536;2023-02-20T04:21:03;5.85;;;2.50;;
22236;SDS011;11287;48.122;11.536;2023-02-20T04:23:33;3.88;;;2.30;;
22236;SDS011;11287;48.122;11.536;2023-02-20T04:26:06;3.75;;;2.10;;
22236;SDS011;11287;48.122;11.536;2023-02-20T04:28:33;3.50;;;2.20;;
22236;SDS011;11287;48.122;11.536;2023-02-20T04:30:59;6.45;;;2.53;;
22236;SDS011;11287;48.122;11.536;2023-02-20T04:33:24;9.30;;;2.40;;
22236;SDS011;11287;48.122;11.536;2023-02-20T04:35:50;4.32;;;2.38;;
22236;SDS011;11287;48.122;11.536;2023-02-20T04:38:15;4.22;;;2.15;;
22236;SDS011;11287;48.122;11.536;2023-02-20T04:40:40;4.60;;;2.17;;
22236;SDS011;11287;48.122;11.536;2023-02-20T04:43:06;5.75;;;2.70;;
22236;SDS011;11287;48.122;11.536;2023-02-20T04:45:31;4.00;;;2.35;;
22236;SDS011;11287;48.122;11.536;2023-02-20T04:47:57;2.55;;;1.98;;
22236;SDS011;11287;48.122;11.536;2023-02-20T04:50:24;8.30;;;2.03;;
22236;SDS011;11287;48.122;11.536;2023-02-20T04:52:53;4.90;;;2.40;;
22236;SDS011;11287;48.122;11.536;2023-02-20T04:55:19;4.40;;;1.95;;
22236;SDS011;11287;48.122;11.536;2023-02-20T04:57:45;3.55;;;2.22;;
22236;SDS011;11287;48.122;11.536;2023-02-20T05:00:11;4.00;;;2.50;;
22236;SDS011;11287;48.122;11.536;2023-02-20T05:02:37;4.53;;;2.50;;
22236;SDS011;11287;48.122;11.536;2023-02-20T05:05:03;3.72;;;2.30;;
22236;SDS011;11287;48.122;11.536;2023-02-20T05:07:29;6.82;;;2.38;;
22236;SDS011;11287;48.122;11.536;2023-02-20T05:09:54;3.42;;;2.08;;
22236;SDS011;11287;48.122;11.536;2023-02-20T05:12:19;4.22;;;2.60;;
22236;SDS011;11287;48.122;11.536;2023-02-20T05:14:45;5.70;;;2.92;;
22236;SDS011;11287;48.122;11.536;2023-02-20T05:17:10;4.03;;;2.40;;
22236;SDS011;11287;48.122;11.536;2023-02-20T05:19:35;3.55;;;2.45;;
22236;SDS011;11287;48.122;11.536;2023-02-20T05:22:00;7.00;;;2.00;;
22236;SDS011;11287;48.122;11.536;2023-02-20T05:27:11;6.15;;;2.10;;
22236;SDS011;11287;48.122;11.536;2023-02-20T05:29:38;5.95;;;2.20;;
22236;SDS011;11287;48.122;11.536;2023-02-20T05:32:14;4.72;;;2.40;;
22236;SDS011;11287;48.122;11.536;2023-02-20T05:34:41;7.07;;;2.83;;
22236;SDS011;11287;48.122;11.536;2023-02-20T05:37:06;5.10;;;2.80;;
22236;SDS011;11287;48.122;11.536;2023-02-20T05:39:32;11.63;;;5.47;;
22236;SDS011;11287;48.122;11.536;2023-02-20T05:41:57;6.13;;;3.00;;
22236;SDS011;11287;48.122;11.536;2023-02-20T05:44:23;5.45;;;2.72;;
22236;SDS011;11287;48.122;11.536;2023-02-20T05:46:48;3.47;;;2.28;;
22236;SDS011;11287;48.122;11.536;2023-02-20T05:49:15;6.28;;;2.42;;
22236;SDS011;11287;48.122;11.536;2023-02-20T05:51:41;5.07;;;2.60;;
22236;SDS011;11287;48.122;11.536;2023-02-20T05:54:06;6.70;;;2.70;;
22236;SDS011;11287;48.122;11.536;2023-02-20T05:56:32;5.05;;;2.42;;
22236;SDS011;11287;48.122;11.536;2023-02-20T05:58:57;7.13;;;2.72;;
22236;SDS011;11287;48.122;11.536;2023-02-20T06:01:24;6.10;;;2.88;;
22236;SDS011;11287;48.122;11.536;2023-02-20T06:03:50;5.68;;;2.80;;
22236;SDS011;11287;48.122;11.536;2023-02-20T06:06:16;3.85;;;2.65;;
22236;SDS011;11287;48.122;11.536;2023-02-20T06:08:42;5.15;;;2.80;;
22236;SDS011;11287;48.122;11.536;2023-02-20T06:11:08;6.07;;;2.75;;
22236;SDS011;11287;48.122;11.536;2023-02-20T06:13:34;4.55;;;2.58;;
22236;SDS011;11287;48.122;11.536;2023-02-20T06:15:59;4.50;;;2.90;;
22236;SDS011;11287;48.122;11.536;2023-02-20T06:18:24;5.70;;;2.53;;
22236;SDS011;11287;48.122;11.536;2023-02-20T06:20:50;10.05;;;3.53;;
22236;SDS011;11287;48.122;11.536;2023-02-20T06:23:15;7.35;;;3.03;;
22236;SDS011;11287;48.122;11.536;2023-02-20T06:25:40;6.28;;;3.10;;
22236;SDS011;11287;48.122;11.536;2023-02-20T06:28:05;10.82;;;2.97;;
22236;SDS011;11287;48.122;11.536;2023-02-20T06:30:31;9.77;;;2.65;;
22236;SDS011;11287;48.122;11.536;2023-02-20T06:32:56;4.47;;;3.05;;
22236;SDS011;11287;48.122;11.536;2023-02-20T06:35:21;4.78;;;2.85;;
22236;SDS011;11287;48.122;11.536;2023-02-20T06:37:47;7.32;;;3.47;;
22236;SDS011;11287;48.122;11.536;2023-02-20T06:40:12;12.32;;;5.82;;
22236;SDS011;11287;48.122;11.536;2023-02-20T06:42:37;13.98;;;4.13;;
22236;SDS011;11287;48.122;11.536;2023-02-20T06:45:03;6.05;;;3.17;;
22236;SDS011;11287;48.122;11.536;2023-02-20T06:47:28;7.60;;;4.68;;
22236;SDS011;11287;48.122;11.536;2023-02-20T06:49:53;14.10;;;6.47;;
22236;SDS011;11287;48.122;11.536;2023-02-20T06:52:19;13.70;;;6.82;;
22236;SDS011;11287;48.122;11.536;2023-02-20T06:54:44;6.15;;;4.32;;
22236;SDS011;11287;48.122;11.536;2023-02-20T06:57:09;7.32;;;3.63;;
22236;SDS011;11287;48.122;11.536;2023-02-20T06:59:35;9.43;;;4.30;;
22236;SDS011;11287;48.122;11.536;2023-02-20T07:02:05;9.40;;;4.63;;
22236;SDS011;11287;48.122;11.536;2023-02-20T07:04:31;6.80;;;3.83;;
22236;SDS011;11287;48.122;11.536;2023-02-20T07:06:56;10.27;;;5.88;;
22236;SDS011;11287;48.122;11.536;2023-02-20T07:09:23;6.55;;;3.53;;
22236;SDS011;11287;48.122;11.536;2023-02-20T07:11:49;5.20;;;3.35;;
22236;SDS011;11287;48.122;11.536;2023-02-20T07:14:16;9.32;;;3.95;;
22236;SDS011;11287;48.122;11.536;2023-02-20T07:16:41;7.82;;;3.45;;
22236;SDS011;11287;48.122;11.536;2023-02-20T07:19:07;6.85;;;3.88;;
22236;SDS011;11287;48.122;11.536;2023-02-20T07:21:32;5.13;;;3.10;;
22236;SDS011;11287;48.122;11.536;2023-02-20T07:23:57;4.80;;;3.13;;
22236;SDS011;11287;48.122;11.536;2023-02-20T07:26:24;6.20;;;2.95;;
22236;SDS011;11287;48.122;11.536;2023-02-20T07:28:50;4.72;;;3.05;;
22236;SDS011;11287;48.122;11.536;2023-02-20T07:31:16;5.80;;;2.80;;
22236;SDS011;11287;48.122;11.536;2023-02-20T07:33:42;7.30;;;3.10;;
22236;SDS011;11287;48.122;11.536;2023-02-20T07:36:08;6.63;;;2.75;;
22236;SDS011;11287;48.122;11.536;2023-02-20T07:38:34;5.38;;;3.08;;
22236;SDS011;11287;48.122;11.536;2023-02-20T07:40:59;8.20;;;3.03;;
22236;SDS011;11287;48.122;11.536;2023-02-20T07:43:24;5.40;;;2.65;;
22236;SDS011;11287;48.122;11.536;2023-02-20T07:45:50;9.25;;;3.08;;
22236;SDS011;11287;48.122;11.536;2023-02-20T07:48:15;5.57;;;2.75;;
22236;SDS011;11287;48.122;11.536;2023-02-20T07:50:40;8.25;;;3.17;;
22236;SDS011;11287;48.122;11.536;2023-02-20T07:53:06;15.27;;;2.72;;
22236;SDS011;11287;48.122;11.536;2023-02-20T07:55:31;4.53;;;2.42;;
22236;SDS011;11287;48.122;11.536;2023-02-20T07:57:57;5.18;;;3.17;;
22236;SDS011;11287;48.122;11.536;2023-02-20T08:00:23;7.50;;;3.08;;
22236;SDS011;11287;48.122;11.536;2023-02-20T08:02:50;12.43;;;3.00;;
22236;SDS011;11287;48.122;11.536;2023-02-20T08:05:15;5.72;;;2.47;;
22236;SDS011;11287;48.122;11.536;2023-02-20T08:07:44;5.60;;;2.40;;
22236;SDS011;11287;48.122;11.536;2023-02-20T08:10:10;6.07;;;2.20;;
22236;SDS011;11287;48.122;11.536;2023-02-20T08:12:36;6.97;;;2.20;;
22236;SDS011;11287;48.122;11.536;2023-02-20T08:15:01;4.53;;;2.60;;
22236;SDS011;11287;48.122;11.536;2023-02-20T08:17:27;6.07;;;2.85;;
22236;SDS011;11287;48.122;11.536;2023-02-20T08:19:52;17.58;;;7.85;;
22236;SDS011;11287;48.122;11.536;2023-02-20T08:22:17;9.15;;;2.85;;
22236;SDS011;11287;48.122;11.536;2023-02-20T08:24:43;7.80;;;2.30;;
22236;SDS011;11287;48.122;11.536;2023-02-20T08:27:08;3.45;;;2.13;;
22236;SDS011;11287;48.122;11.536;2023-02-20T08:29:33;4.47;;;2.22;;
22236;SDS011;11287;48.122;11.536;2023-02-20T08:31:59;3.20;;;2.20;;
22236;SDS011;11287;48.122;11.536;2023-02-20T08:34:24;3.72;;;2.03;;
22236;SDS011;11287;48.122;11.536;2023-02-20T08:36:49;5.60;;;1.90;;
22236;SDS011;11287;48.122;11.536;2023-02-20T08:39:15;9.10;;;2.60;;
22236;SDS011;11287;48.122;11.536;2023-02-20T08:41:41;3.05;;;2.22;;
22236;SDS011;11287;48.122;11.536;2023-02-20T08:44:09;7.15;;;2.22;;
22236;SDS011;11287;48.122;11.536;2023-02-20T08:46:34;14.68;;;2.70;;
22236;SDS011;11287;48.122;11.536;2023-02-20T08:49:00;4.40;;;2.13;;
22236;SDS011;11287;48.122;11.536;2023-02-20T08:51:26;3.70;;;1.92;;
22236;SDS011;11287;48.122;11.536;2023-02-20T08:53:51;6.72;;;2.33;;
22236;SDS011;11287;48.122;11.536;2023-02-20T08:56:17;5.80;;;1.85;;
22236;SDS011;11287;48.122;11.536;2023-02-20T08:58:44;4.15;;;2.10;;
22236;SDS011;11287;48.122;11.536;2023-02-20T09:01:09;5.28;;;2.17;;
22236;SDS011;11287;48.122;11.536;2023-02-20T09:03:34;5.82;;;2.17;;
22236;SDS011;11287;48.122;11.536;2023-02-20T09:06:02;5.72;;;2.22;;
22236;SDS011;11287;48.122;11.536;2023-02-20T09:08:28;4.43;;;2.35;;
22236;SDS011;11287;48.122;11.536;2023-02-20T09:10:54;4.68;;;2.20;;
22236;SDS011;11287;48.122;11.536;2023-02-20T09:13:20;6.32;;;2.72;;
22236;SDS011;11287;48.122;11.536;2023-02-20T09:15:45;6.30;;;2.42;;
22236;SDS011;11287;48.122;11.536;2023-02-20T09:18:12;4.32;;;2.22;;
22236;SDS011;11287;48.122;11.536;2023-02-20T09:20:38;6.55;;;2.22;;
22236;SDS011;11287;48.122;11.536;2023-02-20T09:23:04;4.22;;;2.20;;
22236;SDS011;11287;48.122;11.536;2023-02-20T09:25:30;3.90;;;1.90;;
22236;SDS011;11287;48.122;11.536;2023-02-20T09:27:55;3.53;;;1.80;;
22236;SDS011;11287;48.122;11.536;2023-02-20T09:30:21;4.75;;;2.25;;
22236;SDS011;11287;48.122;11.536;2023-02-20T09:32:46;5.88;;;2.22;;
22236;SDS011;11287;48.122;11.536;2023-02-20T09:35:16;4.18;;;2.15;;
22236;SDS011;11287;48.122;11.536;2023-02-20T09:37:43;3.85;;;2.35;;
22236;SDS011;11287;48.122;11.536;2023-02-20T09:40:09;7.22;;;2.08;;
22236;SDS011;11287;48.122;11.536;2023-02-20T09:45:37;3.63;;;1.75;;
22236;SDS011;11287;48.122;11.536;2023-02-20T09:48:42;3.33;;;1.83;;
22236;SDS011;11287;48.122;11.536;2023-02-20T09:51:19;8.20;;;1.80;;
22236;SDS011;11287;48.122;11.536;2023-02-20T09:56:15;3.67;;;2.10;;
22236;SDS011;11287;48.122;11.536;2023-02-20T09:58:46;8.52;;;2.17;;
22236;SDS011;11287;48.122;11.536;2023-02-20T10:01:18;3.97;;;1.90;;
22236;SDS011;11287;48.122;11.536;2023-02-20T10:03:50;7.20;;;1.92;;
22236;SDS011;11287;48.122;11.536;2023-02-20T10:06:19;2.88;;;2.00;;
22236;SDS011;11287;48.122;11.536;2023-02-20T10:08:49;7.30;;;2.17;;
22236;SDS011;11287;48.122;11.536;2023-02-20T10:11:18;6.05;;;1.98;;
22236;SDS011;11287;48.122;11.536;2023-02-20T10:16:43;9.75;;;2.22;;
22236;SDS011;11287;48.122;11.536;2023-02-20T10:19:17;8.25;;;1.95;;
22236;SDS011;11287;48.122;11.536;2023-02-20T10:24:31;4.93;;;2.22;;
22236;SDS011;11287;48.122;11.536;2023-02-20T10:29:51;3.28;;;2.20;;
22236;SDS011;11287;48.122;11.536;2023-02-20T10:32:18;5.00;;;2.70;;
22236;SDS011;11287;48.122;11.536;2023-02-20T10:35:04;2.92;;;1.88;;
22236;SDS011;11287;48.122;11.536;2023-02-20T10:37:39;3.22;;;2.10;;
22236;SDS011;11287;48.122;11.536;2023-02-20T10:42:54;3.30;;;1.70;;
22236;SDS011;11287;48.122;11.536;2023-02-20T10:48:16;3.25;;;2.25;;
22236;SDS011;11287;48.122;11.536;2023-02-20T10:50:49;7.10;;;1.90;;
22236;SDS011;11287;48.122;11.536;2023-02-20T10:53:39;4.47;;;2.72;;
22236;SDS011;11287;48.122;11.536;2023-02-20T10:56:15;4.03;;;2.03;;
22236;SDS011;11287;48.122;11.536;2023-02-20T11:01:15;3.53;;;1.70;;
22236;SDS011;11287;48.122;11.536;2023-02-20T11:03:51;4.57;;;2.17;;
22236;SDS011;11287;48.122;11.536;2023-02-20T11:08:44;3.20;;;1.67;;
22236;SDS011;11287;48.122;11.536;2023-02-20T11:12:10;2.38;;;1.80;;
22236;SDS011;11287;48.122;11.536;2023-02-20T11:14:13;2.42;;;1.60;;
22236;SDS011;11287;48.122;11.536;2023-02-20T11:16:40;2.65;;;1.70;;
22236;SDS011;11287;48.122;11.536;2023-02-20T11:19:14;5.22;;;1.60;;
22236;SDS011;11287;48.122;11.536;2023-02-20T11:21:49;4.03;;;1.58;;
22236;SDS011;11287;48.122;11.536;2023-02-20T11:24:36;5.55;;;1.55;;
22236;SDS011;11287;48.122;11.536;2023-02-20T11:29:33;2.80;;;1.50;;
22236;SDS011;11287;48.122;11.536;2023-02-20T11:32:20;1.60;;;1.30;;
22236;SDS011;11287;48.122;11.536;2023-02-20T11:35:34;2.80;;;1.52;;
22236;SDS011;11287;48.122;11.536;2023-02-20T11:37:47;2.63;;;1.52;;
22236;SDS011;11287;48.122;11.536;2023-02-20T11:43:09;3.70;;;1.30;;
22236;SDS011;11287;48.122;11.536;2023-02-20T11:45:35;2.35;;;1.33;;
22236;SDS011;11287;48.122;11.536;2023-02-20T11:48:13;1.42;;;1.20;;
22236;SDS011;11287;48.122;11.536;2023-02-20T11:53:20;3.38;;;1.00;;
22236;SDS011;11287;48.122;11.536;2023-02-20T11:55:48;3.17;;;2.30;;
22236;SDS011;11287;48.122;11.536;2023-02-20T11:58:24;3.28;;;1.05;;
22236;SDS011;11287;48.122;11.536;2023-02-20T12:00:51;2.13;;;1.10;;
22236;SDS011;11287;48.122;11.536;2023-02-20T12:03:25;2.22;;;1.48;;
22236;SDS011;11287;48.122;11.536;2023-02-20T12:05:53;2.47;;;1.35;;
22236;SDS011;11287;48.122;11.536;2023-02-20T12:11:24;2.45;;;1.80;;
22236;SDS011;11287;48.122;11.536;2023-02-20T12:13:50;2.53;;;1.38;;
22236;SDS011;11287;48.122;11.536;2023-02-20T12:21:36;1.80;;;0.88;;
22236;SDS011;11287;48.122;11.536;2023-02-20T12:24:21;1.27;;;1.00;;
22236;SDS011;11287;48.122;11.536;2023-02-20T12:27:17;2.47;;;1.15;;
22236;SDS011;11287;48.122;11.536;2023-02-20T12:35:47;6.05;;;2.42;;
22236;SDS011;11287;48.122;11.536;2023-02-20T12:38:25;4.63;;;2.40;;
22236;SDS011;11287;48.122;11.536;2023-02-20T12:52:29;2.05;;;1.10;;
22236;SDS011;11287;48.122;11.536;2023-02-20T12:57:50;5.65;;;2.42;;
22236;SDS011;11287;48.122;11.536;2023-02-20T13:00:33;4.47;;;1.70;;
22236;SDS011;11287;48.122;11.536;2023-02-20T13:03:05;7.75;;;1.90;;
22236;SDS011;11287;48.122;11.536;2023-02-20T13:05:36;3.17;;;1.38;;
22236;SDS011;11287;48.122;11.536;2023-02-20T13:08:08;3.40;;;2.00;;
22236;SDS011;11287;48.122;11.536;2023-02-20T13:10:45;3.42;;;1.50;;
22236;SDS011;11287;48.122;11.536;2023-02-20T13:13:14;6.53;;;1.83;;
22236;SDS011;11287;48.122;11.536;2023-02-20T13:15:49;4.30;;;1.20;;
22236;SDS011;11287;48.122;11.536;2023-02-20T13:21:12;2.45;;;1.40;;
22236;SDS011;11287;48.122;11.536;2023-02-20T13:23:39;5.63;;;1.13;;
22236;SDS011;11287;48.122;11.536;2023-02-20T13:29:20;3.00;;;1.08;;
22236;SDS011;11287;48.122;11.536;2023-02-20T13:31:50;2.55;;;1.48;;
22236;SDS011;11287;48.122;11.536;2023-02-20T13:36:45;3.37;;;1.03;;
22236;SDS011;11287;48.122;11.536;2023-02-20T13:49:52;1.15;;;0.85;;
22236;SDS011;11287;48.122;11.536;2023-02-20T13:55:01;2.97;;;1.27;;
22236;SDS011;11287;48.122;11.536;2023-02-20T13:57:50;6.63;;;1.25;;
22236;SDS011;11287;48.122;11.536;2023-02-20T14:00:19;2.95;;;1.50;;
22236;SDS011;11287;48.122;11.536;2023-02-20T14:03:11;3.88;;;2.25;;
22236;SDS011;11287;48.122;11.536;2023-02-20T14:08:39;4.75;;;2.00;;
22236;SDS011;11287;48.122;11.536;2023-02-20T14:11:10;6.07;;;3.50;;
22236;SDS011;11287;48.122;11.536;2023-02-20T14:13:38;10.13;;;6.50;;
22236;SDS011;11287;48.122;11.536;2023-02-20T14:16:04;2.80;;;1.45;;
22236;SDS011;11287;48.122;11.536;2023-02-20T14:18:46;1.45;;;1.35;;
22236;SDS011;11287;48.122;11.536;2023-02-20T14:21:18;1.92;;;1.52;;
22236;SDS011;11287;48.122;11.536;2023-02-20T14:23:45;2.33;;;1.83;;
22236;SDS011;11287;48.122;11.536;2023-02-20T14:26:30;1.90;;;1.52;;
22236;SDS011;11287;48.122;11.536;2023-02-20T14:28:57;4.15;;;1.98;;
22236;SDS011;11287;48.122;11.536;2023-02-20T14:31:24;4.53;;;2.47;;
22236;SDS011;11287;48.122;11.536;2023-02-20T14:33:54;5.63;;;2.15;;
22236;SDS011;11287;48.122;11.536;2023-02-20T14:42:17;4.28;;;2.53;;
22236;SDS011;11287;48.122;11.536;2023-02-20T14:44:46;4.25;;;1.92;;
22236;SDS011;11287;48.122;11.536;2023-02-20T14:47:14;3.20;;;1.00;;
22236;SDS011;11287;48.122;11.536;2023-02-20T14:49:41;3.30;;;1.10;;
22236;SDS011;11287;48.122;11.536;2023-02-20T14:52:12;4.07;;;1.60;;
22236;SDS011;11287;48.122;11.536;2023-02-20T14:54:43;2.72;;;1.60;;
22236;SDS011;11287;48.122;11.536;2023-02-20T14:57:14;3.03;;;1.00;;
22236;SDS011;11287;48.122;11.536;2023-02-20T14:59:39;5.60;;;1.05;;
22236;SDS011;11287;48.122;11.536;2023-02-20T15:04:30;6.33;;;1.00;;
22236;SDS011;11287;48.122;11.536;2023-02-20T15:07:02;2.55;;;1.17;;
22236;SDS011;11287;48.122;11.536;2023-02-20T15:12:01;1.63;;;1.00;;
22236;SDS011;11287;48.122;11.536;2023-02-20T15:14:30;2.00;;;1.10;;
22236;SDS011;11287;48.122;11.536;2023-02-20T15:19:51;2.25;;;1.10;;
22236;SDS011;11287;48.122;11.536;2023-02-20T15:22:33;1.88;;;1.00;;
22236;SDS011;11287;48.122;11.536;2023-02-20T15:30:28;1.38;;;1.10;;
22236;SDS011;11287;48.122;11.536;2023-02-20T15:32:54;1.58;;;1.05;;
22236;SDS011;11287;48.122;11.536;2023-02-20T15:35:22;2.70;;;0.90;;
22236;SDS011;11287;48.122;11.536;2023-02-20T15:37:52;2.95;;;1.10;;
22236;SDS011;11287;48.122;11.536;2023-02-20T15:40:24;4.13;;;1.10;;
22236;SDS011;11287;48.122;11.536;2023-02-20T15:42:51;3.45;;;1.08;;
22236;SDS011;11287;48.122;11.536;2023-02-20T15:45:23;3.10;;;1.38;;
22236;SDS011;11287;48.122;11.536;2023-02-20T15:47:52;4.07;;;0.95;;
22236;SDS011;11287;48.122;11.536;2023-02-20T15:50:17;3.00;;;1.40;;
22236;SDS011;11287;48.122;11.536;2023-02-20T15:52:43;5.68;;;0.85;;
22236;SDS011;11287;48.122;11.536;2023-02-20T15:55:13;2.08;;;0.93;;
22236;SDS011;11287;48.122;11.536;2023-02-20T15:57:41;8.50;;;1.35;;
22236;SDS011;11287;48.122;11.536;2023-02-20T16:00:23;4.95;;;1.55;;
22236;SDS011;11287;48.122;11.536;2023-02-20T16:02:54;2.40;;;0.95;;
22236;SDS011;11287;48.122;11.536;2023-02-20T16:05:20;2.25;;;0.98;;
22236;SDS011;11287;48.122;11.536;2023-02-20T16:07:45;6.60;;;1.50;;
22236;SDS011;11287;48.122;11.536;2023-02-20T16:10:11;1.15;;;0.75;;
22236;SDS011;11287;48.122;11.536;2023-02-20T16:12:39;4.90;;;1.00;;
22236;SDS011;11287;48.122;11.536;2023-02-20T16:15:05;2.25;;;0.73;;
22236;SDS011;11287;48.122;11.536;2023-02-20T16:17:32;3.13;;;1.40;;
22236;SDS011;11287;48.122;11.536;2023-02-20T16:19:58;3.85;;;2.40;;
22236;SDS011;11287;48.122;11.536;2023-02-20T16:22:24;12.25;;;2.28;;
22236;SDS011;11287;48.122;11.536;2023-02-20T16:24:49;2.63;;;1.80;;
22236;SDS011;11287;48.122;11.536;2023-02-20T16:27:17;5.60;;;1.90;;
22236;SDS011;11287;48.122;11.536;2023-02-20T16:29:46;2.70;;;1.63;;
22236;SDS011;11287;48.122;11.536;2023-02-20T16:34:42;6.57;;;2.42;;
22236;SDS011;11287;48.122;11.536;2023-02-20T16:37:11;9.30;;;2.10;;
22236;SDS011;11287;48.122;11.536;2023-02-20T16:39:37;5.63;;;1.60;;
22236;SDS011;11287;48.122;11.536;2023-02-20T16:42:09;3.15;;;1.30;;
22236;SDS011;11287;48.122;11.536;2023-02-20T16:44:42;2.40;;;1.35;;
22236;SDS011;11287;48.122;11.536;2023-02-20T16:47:09;4.03;;;1.45;;
22236;SDS011;11287;48.122;11.536;2023-02-20T16:49:36;4.05;;;1.42;;
22236;SDS011;11287;48.122;11.536;2023-02-20T16:52:03;4.90;;;1.58;;
22236;SDS011;11287;48.122;11.536;2023-02-20T16:54:41;2.00;;;1.70;;
22236;SDS011;11287;48.122;11.536;2023-02-20T16:57:07;1.52;;;1.42;;
22236;SDS011;11287;48.122;11.536;2023-02-20T16:59:33;4.30;;;1.63;;